< Typhoon 198115 1981 Season Typhoon 198117 >
Typhoon 198116 (VANESSA)
General InformationTrack Information on Google MapsDetailed Wind InformationList of All Images || Disaster Info.ResourceGoogle EarthGE AnimationAtom FeedGeoJSON
Detalied Best Track (Time Zone = UTC)
Year Month Day Hour Lat. Long. Pressure (hPa) Wind (kt) Class Image Chart
1981 8 16 00 23.8 153.7 998 0 2 Image Chart
1981 8 16 06 24.0 154.5 996 0 2 Image Chart
1981 8 16 12 25.0 155.9 996 0 2 Image Chart
1981 8 16 18 26.1 157.2 994 0 2 Image Chart
1981 8 17 00 27.2 158.3 990 0 2 Image Chart
1981 8 17 06 28.5 159.4 985 40 3 Image Chart
1981 8 17 12 29.6 160.6 980 50 4 Image Chart
1981 8 17 18 30.4 161.4 980 50 4 Image Chart
1981 8 18 00 31.2 162.2 980 50 4 Image Chart
1981 8 18 06 32.0 163.2 985 45 3 Image Chart
1981 8 18 12 32.8 164.2 985 45 3 Image Chart
1981 8 18 18 33.6 165.1 990 40 3 Image Chart
1981 8 19 00 34.5 166.0 992 40 3 Image Chart
1981 8 19 06 36.0 166.5 992 40 3 Image Chart
1981 8 19 12 37.5 166.5 992 40 3 Image Chart
1981 8 19 18 39.0 166.5 992 40 3 Image Chart
1981 8 20 00 40.0 166.0 996 0 2 Image Chart
1981 8 20 06 41.5 166.0 996 0 6 Image Chart
1981 8 20 12 43.0 166.0 994 0 6 Image Chart
1981 8 20 18 45.0 166.0 994 0 6 Image Chart
1981 8 21 00 47.0 165.0 994 0 6 Image Chart
1981 8 21 06 49.0 164.0 994 0 6 Image Chart
1981 8 21 12 51.5 165.0 994 0 6 Image Chart
1981 8 21 18 54.0 167.0 988 0 6 Image Chart
1981 8 22 00 56.0 169.0 988 0 6 Image Chart
1981 8 22 06 57.0 170.0 988 0 6 Image Chart
1981 8 22 12 58.0 171.0 988 0 6 Image Chart
1981 8 22 18 58.0 172.0 988 0 6 Image Chart
1981 8 23 00 58.0 174.0 988 0 6 Image Chart
1981 8 23 06 58.0 177.0 988 0 6 Image Chart
1981 8 23 12 58.0 180.0 988 0 6 Image Chart
Japan Meteorological Agency Best Track Data | Correction Date : 1992-10-21
< Typhoon 198115 1981 Season Typhoon 198117 >

Help